VIJP/JAI METAR and TAF weather

Enter ICAO airport designator
Station Type Date Time Source
VIJP METAR 2019/04/19 08:30 UTC NOAA

VIJP 190830Z 33005KT 4000 HZ SCT035 30/10 Q1011 NOSIG


Station Type Date Time Source
VIJP Decoded METAR 2019/04/19 08:30 UTC NOAA

Jaipur / Sanganer, India (VIJP) 26-49N 075-48E 390M
Apr 19, 2019 - 04:30 AM EDT / 2019.04.19 0830 UTC
Wind: from the NNW (330 degrees) at 6 MPH (5 KT):0
Visibility: 2 mile(s):0
Sky conditions: partly cloudy
Weather: haze
Temperature: 86 F (30 C)
Dew Point: 50 F (10 C)
Relative Humidity: 28%
Pressure (altimeter): 29.85 in. Hg (1011 hPa)
ob: VIJP 190830Z 33005KT 4000 HZ SCT035 30/10 Q1011 NOSIG
cycle: 8

Station Type Date Time Source
VIJP TAF 2019/04/19 06:00 UTC NOAA

TAF VIJP 190500Z 1906/2012 VRB03KT 4000 HZ FEW035
BECMG 1913/1914 VRB03KT 2500 HZ SCT035
BECMG 2004/2006 11006KT 4000 HZ FEW035

Example: see airport list